Grizzly Air Cargo 5378


PAKN
King Salmon Airport
King Salmon, Alaska, US
PABE
Bethel Airport
Bethel, Alaska, US

Activity Log

Date Flight Route Aircraft Duration
No Flights Yet

Route Details

Aircraft Information
Primary: Saab 340AF
Backup: Not Available
Route Data
Distance: 208nm
Sched. Duration: 1h 00m
Avg. Duration: 0h 00m (-100m)
Times Flown: 0
Recm'd Route: AKN J123 BET
Planned Altitude: 20,000ft
Origin Wx: PAKN 281154Z 05003KT 10SM SCT011 M25/M28 A2997 RMK AO2 SLP152 I1000 I6000 T12501278 11128 21256 51019
Dest. Wx: PABE 281153Z 36006KT 10SM CLR M25/M28 A3004 RMK AO2 SLP175 T12501278 11200 21250 51015
Notes:

Financial History
Total Freight: 0lbs
Average Load: 0lbs/flt
Fuel Used: 0lbs
Avg. Fuel Used: 0lbs/flt
Fuel Expense: $0
Avg. Fuel Expense: $0
Avg. Fuel Cost: $0/lbs
Total Gross Income: $0
Pilot Pay: $0
Total Expenses: $0
Total Revenue: $0
Average Revenue: $0